createdAt,value
2022-09-20T11:09:27.098Z,59.00
2022-09-20T11:12:12.449Z,59.50
2022-09-20T11:14:51.091Z,60.60
2022-09-20T11:17:31.943Z,60.70
2022-09-20T11:20:20.713Z,60.30
2022-09-20T11:22:52.759Z,60.90
2022-09-20T11:25:40.980Z,60.90
2022-09-20T11:28:19.275Z,60.80
2022-09-20T11:31:14.078Z,60.30
2022-09-20T11:33:48.222Z,59.50
2022-09-20T11:36:23.649Z,60.20
2022-09-20T11:38:57.676Z,60.20
2022-09-20T11:41:29.492Z,60.00
2022-09-20T11:44:17.391Z,60.90
2022-09-20T11:47:31.218Z,60.50
2022-09-20T11:50:35.203Z,60.20
2022-09-20T11:53:20.993Z,61.20
2022-09-20T11:55:59.153Z,60.50
2022-09-20T11:58:27.764Z,61.60
2022-09-20T12:00:58.461Z,61.00
2022-09-20T12:03:37.347Z,60.30
2022-09-20T12:06:20.659Z,60.50
2022-09-20T12:08:50.785Z,61.30
2022-09-20T12:11:27.069Z,61.40
2022-09-20T12:14:00.854Z,61.80
2022-09-20T12:16:48.752Z,59.80
2022-09-20T12:19:38.763Z,59.90
2022-09-20T12:22:05.507Z,59.50
2022-09-20T12:24:35.423Z,58.90
2022-09-20T12:27:06.627Z,60.70
2022-09-20T12:29:58.076Z,62.00
2022-09-20T12:32:44.120Z,62.50
2022-09-20T12:35:36.969Z,62.00
2022-09-20T12:38:25.434Z,61.50
2022-09-20T12:41:02.816Z,61.40
2022-09-20T12:43:32.945Z,60.80
2022-09-20T12:46:05.381Z,61.10
2022-09-20T12:48:37.690Z,61.90
2022-09-20T12:51:42.997Z,61.30
2022-09-20T12:54:11.799Z,62.10
2022-09-20T12:56:40.670Z,61.20
2022-09-20T12:59:23.868Z,61.40
2022-09-20T13:01:51.250Z,60.30
2022-09-20T13:04:55.206Z,59.10
2022-09-20T13:07:33.217Z,58.90
2022-09-20T13:10:08.375Z,59.50
2022-09-20T13:12:37.443Z,59.20
2022-09-20T13:15:06.024Z,59.00
2022-09-20T13:17:34.241Z,59.50
2022-09-20T13:20:02.051Z,58.80
2022-09-20T13:22:43.430Z,58.10
2022-09-20T13:25:15.808Z,58.20
2022-09-20T13:27:50.867Z,58.10
2022-09-20T13:30:24.223Z,57.30
2022-09-20T13:32:51.874Z,57.00
2022-09-20T13:35:18.571Z,58.00
2022-09-20T13:37:45.308Z,57.90
2022-09-20T13:40:20.922Z,57.70
2022-09-20T13:43:13.002Z,57.20
2022-09-20T13:45:42.695Z,57.20
2022-09-20T13:48:09.864Z,56.90
2022-09-20T13:50:42.014Z,57.50
2022-09-20T13:53:39.405Z,57.30
2022-09-20T13:56:16.072Z,56.50
2022-09-20T13:58:42.985Z,58.10
2022-09-20T14:01:27.869Z,58.20
2022-09-20T14:03:57.262Z,58.40
2022-09-20T14:06:29.696Z,57.80
2022-09-20T14:08:58.835Z,57.70
2022-09-20T14:11:29.296Z,58.30
2022-09-20T14:14:04.304Z,57.60
2022-09-20T14:16:34.647Z,57.30
2022-09-20T14:19:03.193Z,57.10
2022-09-20T14:21:33.380Z,57.60
2022-09-20T14:24:13.251Z,58.00
2022-09-20T14:26:42.243Z,58.30
2022-09-20T14:29:39.984Z,58.20
2022-09-20T14:32:11.976Z,58.40
2022-09-20T14:34:40.451Z,57.40
2022-09-20T14:37:18.351Z,58.80
2022-09-20T14:39:55.182Z,58.50
2022-09-20T14:42:43.738Z,58.60
2022-09-20T14:45:30.214Z,59.70
2022-09-20T14:48:09.340Z,58.30
2022-09-20T14:50:40.520Z,58.10
2022-09-20T14:53:21.533Z,56.90
2022-09-20T14:56:06.476Z,56.20
2022-09-20T14:58:54.878Z,56.00
2022-09-20T15:01:25.982Z,56.30
2022-09-20T15:03:53.602Z,56.60
2022-09-20T15:06:20.440Z,57.00
2022-09-20T15:08:47.287Z,57.20
2022-09-20T15:11:15.392Z,57.30
2022-09-20T15:13:42.579Z,57.30
2022-09-20T15:16:12.325Z,57.90
2022-09-20T15:18:43.839Z,58.00
2022-09-20T15:21:11.420Z,57.90
2022-09-20T15:23:39.495Z,58.00
2022-09-20T15:26:07.683Z,59.10
2022-09-20T15:28:34.935Z,60.00
2022-09-20T15:31:01.991Z,61.10
2022-09-20T15:33:30.891Z,58.20
2022-09-20T15:35:58.178Z,58.00
2022-09-20T15:38:27.026Z,60.40
2022-09-20T15:40:54.343Z,59.30
2022-09-20T15:43:24.269Z,58.40
2022-09-20T15:45:56.998Z,58.20
2022-09-20T15:48:25.861Z,57.50
2022-09-20T15:51:02.479Z,58.80
2022-09-20T15:53:34.342Z,57.90
2022-09-20T15:56:13.307Z,57.20
2022-09-20T15:58:48.386Z,57.30
2022-09-20T16:01:16.781Z,57.90
2022-09-20T16:03:45.096Z,58.10
2022-09-20T16:06:12.367Z,57.90
2022-09-20T16:08:41.394Z,57.90
2022-09-20T16:11:10.700Z,58.40
2022-09-20T16:13:38.709Z,57.70
2022-09-20T16:16:07.557Z,57.90
2022-09-20T16:18:55.021Z,57.20
2022-09-20T16:21:22.357Z,57.30
2022-09-20T16:23:52.371Z,57.60
2022-09-20T16:26:21.530Z,57.40
2022-09-20T16:28:49.179Z,57.90
2022-09-20T16:31:30.724Z,57.90
2022-09-20T16:33:57.758Z,59.10
2022-09-20T16:36:27.456Z,57.00
2022-09-20T16:39:00.856Z,57.00
2022-09-20T16:41:28.972Z,57.40
2022-09-20T16:43:56.061Z,57.40
2022-09-20T16:46:27.133Z,58.00
2022-09-20T16:48:55.325Z,58.50
2022-09-20T16:51:24.704Z,59.30
2022-09-20T16:53:55.684Z,59.60
2022-09-20T16:56:27.463Z,60.10
2022-09-20T16:58:54.688Z,60.20
2022-09-20T17:01:22.069Z,62.60
2022-09-20T17:03:51.952Z,64.80
2022-09-20T17:06:19.247Z,65.20
2022-09-20T17:08:46.850Z,65.30
2022-09-20T17:11:17.019Z,65.30
2022-09-20T17:13:45.293Z,67.00
2022-09-20T17:16:14.688Z,67.70
2022-09-20T17:18:43.173Z,68.40
2022-09-20T17:21:15.539Z,68.60
2022-09-20T17:23:54.947Z,68.30
2022-09-20T17:26:27.427Z,69.20
2022-09-20T17:28:59.456Z,69.50
2022-09-20T17:31:33.405Z,69.80
2022-09-20T17:34:02.168Z,70.30
2022-09-20T17:36:31.378Z,70.70
2022-09-20T17:39:03.866Z,70.60
2022-09-20T17:41:32.856Z,70.60
2022-09-20T17:44:02.665Z,70.90
2022-09-20T17:46:35.496Z,71.00
2022-09-20T17:49:11.266Z,71.20
2022-09-20T17:51:40.666Z,72.10
2022-09-20T17:54:08.479Z,72.50
2022-09-20T17:56:35.787Z,72.80
2022-09-20T17:59:05.260Z,73.00
2022-09-20T18:01:36.434Z,73.40
2022-09-20T18:04:05.060Z,73.50
2022-09-20T18:06:35.345Z,73.50
2022-09-20T18:09:05.014Z,73.70
2022-09-20T18:11:37.468Z,74.00
2022-09-20T18:14:07.816Z,74.40
2022-09-20T18:16:35.191Z,74.80
2022-09-20T18:19:02.221Z,75.50
2022-09-20T18:21:32.258Z,75.20
2022-09-20T18:23:59.129Z,74.70
2022-09-20T18:26:28.738Z,75.40
2022-09-20T18:29:05.134Z,74.90
2022-09-20T18:31:36.135Z,75.00
2022-09-20T18:34:08.433Z,75.30
2022-09-20T18:36:39.342Z,75.20
2022-09-20T18:39:07.067Z,75.00
2022-09-20T18:41:39.805Z,75.30
2022-09-20T18:44:07.611Z,75.30
2022-09-20T18:46:38.096Z,75.40
2022-09-20T18:49:08.580Z,75.80
2022-09-20T18:51:39.690Z,75.90
2022-09-20T18:54:11.230Z,76.10
2022-09-20T18:56:40.072Z,75.60
2022-09-20T18:59:27.956Z,75.40
2022-09-20T19:02:28.775Z,75.10
2022-09-20T19:05:16.470Z,75.80
2022-09-20T19:07:54.959Z,76.20
2022-09-20T19:10:40.844Z,75.70
2022-09-20T19:13:45.817Z,75.90
2022-09-20T19:16:30.636Z,75.80
2022-09-20T19:19:16.267Z,76.10
2022-09-20T19:21:49.120Z,76.20
2022-09-20T19:24:36.725Z,76.10
2022-09-20T19:27:03.750Z,76.40
2022-09-20T19:29:30.978Z,77.10
2022-09-20T19:31:59.229Z,77.30
2022-09-20T19:34:31.030Z,77.40
2022-09-20T19:37:19.136Z,77.50
2022-09-20T19:40:05.013Z,77.70
2022-09-20T19:42:36.225Z,77.80
2022-09-20T19:45:22.745Z,78.00
2022-09-20T19:48:32.519Z,77.60
2022-09-20T19:51:04.032Z,77.60
2022-09-20T19:53:31.192Z,78.50
2022-09-20T19:56:20.660Z,78.60
2022-09-20T19:58:52.866Z,78.30
2022-09-20T20:01:24.994Z,78.30
2022-09-20T20:03:55.842Z,78.00
2022-09-20T20:06:49.733Z,77.70
2022-09-20T20:09:35.048Z,78.00
2022-09-20T20:12:23.744Z,77.70
2022-09-20T20:15:36.004Z,77.90
2022-09-20T20:18:16.616Z,77.90
2022-09-20T20:20:52.470Z,79.00
2022-09-20T20:23:38.016Z,78.70
2022-09-20T20:26:19.832Z,78.60
2022-09-20T20:28:46.833Z,77.90
2022-09-20T20:31:14.217Z,78.20
2022-09-20T20:33:41.122Z,78.40
2022-09-20T20:36:12.060Z,78.10
2022-09-20T20:38:40.955Z,77.50
2022-09-20T20:41:13.107Z,77.60
2022-09-20T20:43:42.514Z,77.60
2022-09-20T20:46:14.530Z,78.10
2022-09-20T20:48:41.749Z,78.30
2022-09-20T20:51:14.082Z,78.50
2022-09-20T20:53:45.261Z,78.10
2022-09-20T20:56:15.000Z,78.30
2022-09-20T20:58:43.381Z,77.70
2022-09-20T21:01:14.658Z,77.20
2022-09-20T21:03:44.239Z,77.90
2022-09-20T21:06:11.784Z,77.80
